Time;durP1;ratioP1;P1;durP2;ratioP2;P2;SDS_P1;SDS_P2;PMS_P1;PMS_P2;Temp;Humidity;BMP_temperature;BMP_pressure;BME280_temperature;BME280_humidity;BME280_pressure;Samples;Min_cycle;Max_cycle;Signal;HPM_P1;HPM_P2
2021/03/29 00:01:15;;;;;;;128.90;41.30;;;4.00;99.90;;;;;;5016171;28;20180;-91
2021/03/29 00:03:41;;;;;;;113.93;35.37;;;1.90;99.90;;;;;;5016254;28;20187;-92
2021/03/29 00:06:07;;;;;;;114.40;37.20;;;4.10;99.90;;;;;;5000031;28;20275;-91
2021/03/29 00:08:34;;;;;;;121.50;39.23;;;2.10;99.90;;;;;;5000100;28;20267;-91
2021/03/29 00:11:02;;;;;;;127.93;42.60;;;3.90;99.90;;;;;;5033339;28;20259;-91
2021/03/29 00:13:30;;;;;;;126.30;42.27;;;1.70;99.90;;;;;;5016033;28;20262;-91
2021/03/29 00:15:57;;;;;;;133.20;43.17;;;3.50;99.90;;;;;;5033375;28;20585;-91
2021/03/29 00:18:23;;;;;;;139.83;42.87;;;1.80;99.90;;;;;;5016021;28;20230;-91
2021/03/29 00:20:54;;;;;;;134.97;41.37;;;1.70;99.90;;;;;;4999504;28;20650;-91
2021/03/29 00:23:21;;;;;;;140.07;43.53;;;2.10;99.90;;;;;;5033896;28;20175;-91
2021/03/29 00:25:46;;;;;;;124.03;38.87;;;1.80;99.90;;;;;;5033487;28;20247;-91
2021/03/29 00:28:12;;;;;;;117.60;39.93;;;1.60;99.90;;;;;;4983701;28;20185;-91
2021/03/29 00:30:43;;;;;;;114.50;39.03;;;1.60;99.90;;;;;;5015764;28;20597;-91
2021/03/29 00:33:09;;;;;;;112.43;34.40;;;2.00;99.90;;;;;;5016542;28;20579;-92
2021/03/29 00:35:38;;;;;;;93.87;34.17;;;1.50;99.90;;;;;;4999659;28;20192;-93
2021/03/29 00:38:06;;;;;;;91.93;32.80;;;2.30;99.90;;;;;;5015865;28;20180;-92
2021/03/29 00:40:32;;;;;;;76.47;29.40;;;1.40;99.90;;;;;;5033382;28;20185;-92
2021/03/29 00:43:08;;;;;;;84.87;31.37;;;1.40;99.90;;;;;;5015340;28;20172;-92
2021/03/29 00:45:35;;;;;;;72.33;28.63;;;1.40;99.90;;;;;;5032997;28;20559;-92
2021/03/29 00:48:01;;;;;;;77.70;28.27;;;1.90;99.90;;;;;;5015205;28;21094;-92
2021/03/29 00:50:47;;;;;;;81.23;30.00;;;1.30;99.90;;;;;;4999511;28;20307;-92
2021/03/29 00:53:13;;;;;;;107.73;36.93;;;1.20;99.90;;;;;;5014866;28;20184;-93
2021/03/29 00:55:43;;;;;;;130.50;43.00;;;2.20;99.90;;;;;;5033494;28;20184;-93
2021/03/29 00:58:11;;;;;;;153.77;46.73;;;1.20;99.90;;;;;;4999266;28;20185;-92
2021/03/29 01:01:06;;;;;;;118.70;40.03;;;1.30;99.90;;;;;;4999598;28;20230;-92
2021/03/29 01:03:36;;;;;;;111.20;34.83;;;1.20;99.90;;;;;;5012595;28;20663;-93
2021/03/29 01:06:08;;;;;;;92.80;33.60;;;1.20;99.90;;;;;;5015352;28;20213;-93
2021/03/29 01:08:39;;;;;;;79.90;30.30;;;1.20;99.90;;;;;;5033235;28;20617;-92
2021/03/29 01:11:07;;;;;;;81.23;28.40;;;2.10;99.90;;;;;;4999747;28;20177;-93
2021/03/29 01:13:48;;;;;;;83.23;27.40;;;2.40;99.90;;;;;;5015533;28;20282;-92
2021/03/29 01:16:17;;;;;;;72.50;26.07;;;1.10;99.90;;;;;;5015666;28;20211;-92
2021/03/29 01:18:45;;;;;;;67.60;27.63;;;1.00;99.90;;;;;;5015289;28;20267;-92
2021/03/29 01:21:22;;;;;;;73.37;26.60;;;2.50;99.90;;;;;;5033086;28;20633;-93
2021/03/29 01:23:51;;;;;;;83.47;28.60;;;3.00;99.90;;;;;;5015357;28;20191;-92
2021/03/29 01:26:52;;;;;;;62.20;25.80;;;3.00;99.90;;;;;;5014611;28;20264;-92
2021/03/29 01:29:18;;;;;;;61.53;22.87;;;1.10;99.90;;;;;;5010393;28;20274;-92
2021/03/29 01:31:45;;;;;;;71.27;25.87;;;2.70;99.90;;;;;;5033221;28;20178;-92
2021/03/29 01:34:14;;;;;;;57.30;23.57;;;2.40;99.90;;;;;;5033121;28;20395;-92
2021/03/29 01:36:43;;;;;;;72.77;27.33;;;2.00;99.90;;;;;;5015136;28;20706;-91
2021/03/29 01:39:11;;;;;;;74.73;26.17;;;1.90;99.90;;;;;;5014985;28;20679;-91
2021/03/29 01:41:38;;;;;;;77.13;28.30;;;2.80;99.90;;;;;;5032624;28;20179;-91
2021/03/29 01:44:04;;;;;;;76.67;27.40;;;3.20;99.90;;;;;;5015068;28;20180;-92
2021/03/29 01:46:31;;;;;;;87.27;28.37;;;1.30;99.90;;;;;;4998826;28;20638;-91
2021/03/29 01:48:57;;;;;;;76.27;28.47;;;2.40;99.90;;;;;;4998687;28;20187;-92
2021/03/29 01:51:23;;;;;;;83.77;31.27;;;3.30;99.90;;;;;;4998894;28;20283;-92
2021/03/29 01:53:49;;;;;;;83.30;31.67;;;2.00;99.90;;;;;;4998327;28;20227;-92
2021/03/29 01:56:15;;;;;;;89.47;29.50;;;3.10;99.90;;;;;;5032421;28;20175;-92
2021/03/29 01:58:42;;;;;;;87.70;31.37;;;1.50;99.90;;;;;;5015442;28;20183;-92
2021/03/29 02:01:11;;;;;;;80.93;28.73;;;1.50;99.90;;;;;;5032514;28;20180;-93
2021/03/29 02:03:43;;;;;;;77.90;29.13;;;0.00;99.90;;;;;;5032560;28;20180;-91
2021/03/29 02:06:09;;;;;;;67.37;25.87;;;3.50;99.90;;;;;;5017543;28;20599;-91
2021/03/29 02:08:38;;;;;;;75.17;28.23;;;1.70;99.90;;;;;;5018526;28;20172;-92
2021/03/29 02:11:05;;;;;;;61.13;22.93;;;3.50;99.90;;;;;;5035839;28;20653;-92
2021/03/29 02:13:37;;;;;;;55.47;20.03;;;1.60;99.90;;;;;;5002201;28;20219;-91
2021/03/29 02:16:05;;;;;;;60.67;22.27;;;2.90;99.90;;;;;;5017869;28;20283;-92
2021/03/29 02:18:37;;;;;;;58.33;22.43;;;1.60;99.90;;;;;;5002037;28;20188;-91
2021/03/29 02:21:08;;;;;;;60.07;23.03;;;2.40;99.90;;;;;;5035575;28;20188;-91
2021/03/29 02:23:35;;;;;;;55.93;21.93;;;2.80;99.90;;;;;;5018369;28;20184;-92
2021/03/29 02:26:04;;;;;;;59.73;23.47;;;2.10;99.90;;;;;;4985405;28;20185;-91
2021/03/29 02:28:29;;;;;;;51.60;21.47;;;1.70;99.90;;;;;;5002155;28;20184;-91
2021/03/29 02:31:00;;;;;;;61.87;21.73;;;4.30;99.90;;;;;;5001388;28;20700;-92
2021/03/29 02:33:27;;;;;;;55.63;21.67;;;3.50;99.90;;;;;;4986111;28;20212;-92
2021/03/29 02:35:54;;;;;;;76.83;26.37;;;1.70;99.90;;;;;;5017624;28;20192;-92
2021/03/29 02:38:22;;;;;;;71.50;26.83;;;0.90;99.90;;;;;;5017985;28;20176;-91
2021/03/29 02:40:51;;;;;;;62.60;23.13;;;1.80;99.90;;;;;;5018477;28;20180;-90
2021/03/29 02:43:18;;;;;;;58.90;23.07;;;1.80;99.90;;;;;;5017415;28;20259;-90
2021/03/29 02:45:49;;;;;;;50.17;21.97;;;1.40;99.90;;;;;;5017399;28;20547;-91
2021/03/29 02:48:17;;;;;;;69.07;26.50;;;3.30;99.90;;;;;;5016985;28;20236;-91
2021/03/29 02:50:44;;;;;;;85.20;29.37;;;1.90;99.90;;;;;;5035806;28;20212;-90
2021/03/29 02:53:22;;;;;;;74.50;28.60;;;3.20;99.90;;;;;;5017414;28;20188;-91
2021/03/29 02:55:49;;;;;;;71.40;26.67;;;1.90;99.90;;;;;;5017702;28;20184;-91
2021/03/29 02:58:18;;;;;;;71.70;26.93;;;2.00;99.90;;;;;;5035526;28;20187;-91
2021/03/29 03:00:45;;;;;;;59.20;22.63;;;2.00;99.90;;;;;;5035273;28;20181;-92
2021/03/29 03:03:12;;;;;;;55.90;21.73;;;2.00;99.90;;;;;;5017671;28;20184;-91
2021/03/29 03:05:39;;;;;;;53.63;21.93;;;3.70;99.90;;;;;;5017784;28;20188;-91
2021/03/29 03:08:07;;;;;;;55.87;23.90;;;2.00;99.90;;;;;;5017475;28;20617;-93
2021/03/29 03:10:35;;;;;;;60.67;28.17;;;2.10;99.90;;;;;;5001361;28;20195;-92
2021/03/29 03:13:04;;;;;;;54.73;22.73;;;2.60;99.90;;;;;;5016946;28;20180;-91
2021/03/29 03:15:31;;;;;;;54.50;22.83;;;3.70;99.90;;;;;;5017280;28;20221;-90
2021/03/29 03:18:04;;;;;;;55.57;19.73;;;2.10;99.90;;;;;;5000459;28;20203;-90
2021/03/29 03:20:31;;;;;;;48.03;19.77;;;2.10;99.90;;;;;;5035063;28;20226;-89
2021/03/29 03:23:03;;;;;;;47.87;20.03;;;3.90;99.90;;;;;;5017330;28;20226;-91
2021/03/29 03:25:38;;;;;;;53.13;20.77;;;2.10;99.90;;;;;;5016914;28;20180;-91
2021/03/29 03:28:06;;;;;;;55.77;25.20;;;3.00;99.90;;;;;;5017305;28;20286;-91
2021/03/29 03:30:39;;;;;;;45.10;20.17;;;3.90;99.90;;;;;;5017477;28;20216;-90
2021/03/29 03:33:10;;;;;;;49.87;20.17;;;2.20;99.90;;;;;;5017414;28;20216;-91
2021/03/29 03:35:40;;;;;;;48.07;20.23;;;3.20;99.90;;;;;;5017007;28;20188;-91
2021/03/29 03:38:18;;;;;;;53.60;24.07;;;3.80;99.90;;;;;;5017509;28;20271;-91
2021/03/29 03:40:47;;;;;;;55.20;24.00;;;2.60;99.90;;;;;;5019370;28;20233;-92
2021/03/29 03:43:17;;;;;;;62.10;28.20;;;2.30;99.90;;;;;;5042058;28;20746;-93
2021/03/29 03:45:47;;;;;;;51.20;24.27;;;2.30;99.90;;;;;;5037917;28;20189;-89
2021/03/29 03:48:16;;;;;;;44.80;20.40;;;3.20;99.90;;;;;;5032113;28;20229;-86
2021/03/29 03:50:46;;;;;;;46.77;19.33;;;2.40;99.90;;;;;;5038943;28;20184;-91
2021/03/29 03:53:13;;;;;;;38.50;18.80;;;4.20;99.90;;;;;;5041539;28;20153;-93
2021/03/29 03:55:42;;;;;;;44.53;18.13;;;2.50;99.90;;;;;;5041654;28;20169;-94
2021/03/29 03:58:13;;;;;;;43.30;18.00;;;4.80;99.90;;;;;;5038908;28;20187;-95
2021/03/29 04:00:39;;;;;;;45.37;18.97;;;3.10;99.90;;;;;;5036870;28;20191;-95
2021/03/29 04:03:04;;;;;;;49.10;19.03;;;3.90;99.90;;;;;;5040007;28;20173;-95
2021/03/29 04:05:30;;;;;;;48.50;19.60;;;2.50;99.90;;;;;;5024759;28;20156;-93
2021/03/29 04:07:58;;;;;;;46.50;20.80;;;3.20;99.90;;;;;;5040978;28;20164;-93
2021/03/29 04:10:37;;;;;;;50.07;21.77;;;2.60;99.90;;;;;;5028109;28;20203;-94
2021/03/29 04:13:07;;;;;;;49.77;21.07;;;4.10;99.90;;;;;;5016920;28;20558;-94
2021/03/29 04:15:35;;;;;;;52.43;23.10;;;2.70;99.90;;;;;;5034232;28;20218;-95
2021/03/29 04:18:01;;;;;;;56.07;25.60;;;3.40;99.90;;;;;;5016695;28;20188;-96
2021/03/29 04:20:26;;;;;;;58.10;28.20;;;2.60;99.90;;;;;;5016797;28;20177;-95
2021/03/29 04:22:52;;;;;;;64.10;30.90;;;2.60;99.90;;;;;;5016811;28;20177;-95
2021/03/29 04:25:18;;;;;;;65.97;29.37;;;4.60;99.90;;;;;;5034123;28;20288;-95
2021/03/29 04:27:43;;;;;;;75.90;28.10;;;4.00;99.90;;;;;;4999868;28;20652;-95
2021/03/29 04:30:12;;;;;;;61.37;23.70;;;2.60;99.90;;;;;;5016437;28;20259;-95
2021/03/29 04:32:39;;;;;;;50.77;24.30;;;2.70;99.90;;;;;;5034185;28;20307;-94
2021/03/29 04:35:06;;;;;;;73.23;28.90;;;2.70;99.90;;;;;;4999851;28;20209;-93
2021/03/29 04:37:31;;;;;;;73.63;30.43;;;2.80;99.90;;;;;;5016536;28;20183;-91
2021/03/29 04:39:57;;;;;;;58.47;26.57;;;3.90;99.90;;;;;;5021307;28;20181;-94
2021/03/29 04:42:23;;;;;;;74.97;29.90;;;3.20;99.90;;;;;;5016176;28;20271;-94
2021/03/29 04:44:49;;;;;;;68.20;26.70;;;3.10;99.90;;;;;;4999614;28;20202;-94
2021/03/29 04:47:14;;;;;;;63.93;25.03;;;2.80;99.90;;;;;;4999695;28;20229;-94
2021/03/29 04:49:41;;;;;;;97.53;34.50;;;3.60;99.90;;;;;;5016132;28;20205;-93
2021/03/29 04:52:10;;;;;;;81.30;27.60;;;3.70;99.90;;;;;;4999923;28;20181;-94
2021/03/29 04:54:35;;;;;;;61.30;27.63;;;2.90;99.90;;;;;;5033612;28;20218;-94
2021/03/29 04:57:02;;;;;;;59.30;24.53;;;3.10;99.90;;;;;;5015963;28;20717;-94
2021/03/29 04:59:27;;;;;;;56.30;23.40;;;3.20;99.90;;;;;;5016103;28;20654;-93
2021/03/29 05:01:53;;;;;;;58.53;23.90;;;3.30;99.90;;;;;;5033782;28;20178;-93
2021/03/29 05:04:19;;;;;;;57.93;25.17;;;4.70;99.90;;;;;;4999702;28;20263;-93
2021/03/29 05:06:45;;;;;;;59.70;27.03;;;3.10;99.90;;;;;;4999724;28;20641;-94
2021/03/29 05:09:10;;;;;;;49.63;24.60;;;3.10;99.90;;;;;;4982958;28;20187;-94
2021/03/29 05:12:36;;;;;;;62.83;27.03;;;3.30;99.90;;;;;;5015749;28;20184;-93
2021/03/29 05:14:31;;;;;;;56.27;23.80;;;5.40;99.90;;;;;;5007234;28;20306;-94
2021/03/29 05:16:56;;;;;;;49.57;23.37;;;3.40;99.90;;;;;;4999790;28;20321;-94
2021/03/29 05:19:22;;;;;;;67.13;29.67;;;3.50;99.90;;;;;;5020170;28;20209;-94
2021/03/29 05:21:48;;;;;;;74.97;27.33;;;3.50;99.90;;;;;;5005766;28;20668;-95
2021/03/29 05:24:13;;;;;;;64.97;28.27;;;3.70;99.90;;;;;;5038949;28;20200;-92
2021/03/29 05:26:39;;;;;;;60.57;26.07;;;3.90;99.90;;;;;;5023350;28;20677;-93
2021/03/29 05:29:05;;;;;;;45.03;19.83;;;4.90;99.90;;;;;;5038246;28;20202;-94
2021/03/29 05:31:35;;;;;;;39.17;18.27;;;4.00;99.90;;;;;;5018013;28;20595;-92
2021/03/29 05:34:01;;;;;;;37.97;17.40;;;4.20;99.90;;;;;;5008581;28;20229;-89
2021/03/29 05:36:27;;;;;;;36.80;16.53;;;4.60;99.90;;;;;;5020326;28;20225;-91
2021/03/29 05:38:52;;;;;;;34.50;14.40;;;4.60;99.90;;;;;;4994385;28;20195;-95
2021/03/29 05:41:18;;;;;;;33.53;15.30;;;5.40;99.90;;;;;;5024057;28;20192;-94
2021/03/29 05:43:47;;;;;;;45.13;14.77;;;4.80;99.90;;;;;;5019031;28;20206;-93
2021/03/29 05:46:14;;;;;;;32.10;13.93;;;4.80;99.90;;;;;;5045025;28;20195;-94
2021/03/29 05:48:40;;;;;;;38.40;13.77;;;4.90;99.90;;;;;;5024772;28;20188;-93
2021/03/29 05:51:07;;;;;;;27.33;12.50;;;5.00;99.90;;;;;;5041193;28;20543;-94
2021/03/29 05:53:34;;;;;;;29.40;14.13;;;5.50;99.90;;;;;;5046053;28;20247;-95
2021/03/29 05:56:01;;;;;;;35.50;13.27;;;5.20;99.90;;;;;;5031087;28;20180;-92
2021/03/29 06:00:54;;;;;;;29.87;12.63;;;5.70;99.90;;;;;;5046765;28;20223;-94
2021/03/29 06:03:21;;;;;;;27.60;12.83;;;5.50;99.90;;;;;;5037908;28;20260;-93
2021/03/29 06:05:49;;;;;;;29.63;14.83;;;5.60;99.90;;;;;;5017780;28;20708;-95
2021/03/29 06:08:15;;;;;;;33.23;14.03;;;6.20;99.90;;;;;;5034846;28;20246;-92
2021/03/29 06:10:44;;;;;;;32.13;14.70;;;5.90;99.90;;;;;;5011254;28;20184;-94
2021/03/29 06:13:15;;;;;;;25.73;11.90;;;5.90;99.90;;;;;;4998176;28;20184;-94
2021/03/29 06:15:41;;;;;;;42.17;14.27;;;6.00;99.90;;;;;;4992545;28;20202;-95
2021/03/29 06:18:16;;;;;;;31.23;14.50;;;6.00;99.90;;;;;;5025124;28;20183;-88
2021/03/29 06:20:57;;;;;;;28.07;12.90;;;6.00;99.90;;;;;;5015926;28;20181;-92
2021/03/29 06:23:23;;;;;;;26.63;12.57;;;6.30;99.90;;;;;;5021415;28;20183;-93
2021/03/29 06:25:49;;;;;;;27.37;12.17;;;6.20;99.90;;;;;;5025788;28;20172;-92
2021/03/29 06:28:26;;;;;;;22.90;12.83;;;6.50;99.90;;;;;;5030453;28;20273;-94
2021/03/29 06:30:52;;;;;;;25.57;11.03;;;6.20;99.90;;;;;;5029436;28;20233;-93
2021/03/29 06:33:18;;;;;;;26.93;12.37;;;6.20;99.90;;;;;;5027466;28;20250;-92
2021/03/29 06:35:55;;;;;;;28.87;12.83;;;6.20;99.90;;;;;;5038117;28;20619;-91
2021/03/29 06:38:28;;;;;;;27.00;13.20;;;6.20;99.90;;;;;;5034447;28;20172;-90
2021/03/29 06:41:00;;;;;;;26.47;12.47;;;6.20;99.90;;;;;;5017246;28;20183;-91
2021/03/29 06:43:35;;;;;;;29.37;12.83;;;6.30;99.90;;;;;;5036413;28;20187;-91
2021/03/29 06:46:04;;;;;;;26.00;11.53;;;6.20;99.90;;;;;;5022172;28;20214;-91
2021/03/29 06:48:35;;;;;;;31.33;13.37;;;6.30;99.90;;;;;;5014928;28;20272;-93
2021/03/29 06:51:08;;;;;;;23.63;12.27;;;4.80;99.90;;;;;;5030480;28;20180;-92
2021/03/29 06:53:45;;;;;;;30.73;13.30;;;6.50;99.90;;;;;;5003555;28;20288;-93
2021/03/29 06:56:32;;;;;;;28.73;13.40;;;6.60;99.90;;;;;;5018654;28;20180;-91
2021/03/29 06:59:15;;;;;;;32.33;12.93;;;6.20;99.90;;;;;;5026801;28;20192;-94
2021/03/29 07:02:07;;;;;;;33.93;11.67;;;6.90;99.90;;;;;;5020588;28;20215;-95
2021/03/29 07:04:53;;;;;;;29.27;11.70;;;7.00;99.90;;;;;;5020062;28;20188;-93
2021/03/29 07:07:21;;;;;;;27.90;11.73;;;7.30;99.90;;;;;;5019333;28;20187;-92
2021/03/29 07:10:20;;;;;;;;;;;;;;;;;;;;;
2021/03/29 07:12:46;;;;;;;31.40;12.90;;;6.30;99.90;;;;;;5038164;28;20175;-92
2021/03/29 07:15:25;;;;;;;23.40;10.63;;;7.90;99.90;;;;;;5021369;28;20272;-91
2021/03/29 07:18:02;;;;;;;31.13;11.00;;;7.70;99.90;;;;;;5020337;28;20184;-93
2021/03/29 07:20:42;;;;;;;32.07;12.60;;;7.20;99.90;;;;;;5020264;28;20192;-92
2021/03/29 07:23:22;;;;;;;24.60;11.80;;;7.80;99.90;;;;;;5024467;28;20180;-92
2021/03/29 07:25:48;;;;;;;27.43;11.10;;;9.80;99.90;;;;;;5023876;28;20214;-92
2021/03/29 07:41:45;;;;;;;20.73;9.73;;;8.70;99.30;;;;;;5014946;28;20212;-91
2021/03/29 07:44:17;;;;;;;29.03;11.00;;;8.40;99.90;;;;;;4997564;28;20185;-91
2021/03/29 07:46:47;;;;;;;20.73;10.20;;;8.50;99.90;;;;;;5013790;28;20260;-91
2021/03/29 07:49:47;;;;;;;30.73;11.00;;;8.50;99.90;;;;;;5034932;28;20164;-92
2021/03/29 07:55:53;;;;;;;20.53;7.83;;;8.70;99.90;;;;;;4994744;28;20721;-91
2021/03/29 07:58:25;;;;;;;32.03;11.40;;;7.50;99.70;;;;;;4961132;28;20193;-91
2021/03/29 08:01:13;;;;;;;24.77;10.50;;;8.80;99.90;;;;;;4976486;28;20189;-91
2021/03/29 08:07:00;;;;;;;20.80;9.57;;;9.00;99.90;;;;;;4992913;28;20174;-91
2021/03/29 08:13:00;;;;;;;22.63;10.17;;;9.00;99.90;;;;;;4956483;28;20194;-91
2021/03/29 08:19:12;;;;;;;23.90;9.40;;;9.20;99.90;;;;;;4953969;29;20247;-91
2021/03/29 08:25:01;;;;;;;24.77;9.30;;;9.30;99.90;;;;;;4944216;29;20229;-91
2021/03/29 08:31:05;;;;;;;21.07;10.10;;;9.50;99.90;;;;;;4992569;28;20718;-90
2021/03/29 08:33:33;;;;;;;20.80;7.80;;;9.60;99.90;;;;;;4959979;28;20189;-91
2021/03/29 08:39:23;;;;;;;18.60;8.63;;;9.80;98.20;;;;;;4991342;28;20738;-86
2021/03/29 08:41:52;;;;;;;19.13;7.83;;;9.70;97.80;;;;;;4944300;28;20269;-88
2021/03/29 08:44:19;;;;;;;14.43;7.37;;;9.80;97.20;;;;;;4997606;28;20331;-90
2021/03/29 08:46:46;;;;;;;22.90;7.30;;;8.90;96.20;;;;;;5019945;28;20231;-89
2021/03/29 08:49:13;;;;;;;17.87;7.63;;;9.80;98.30;;;;;;5020131;28;20184;-91
2021/03/29 08:55:36;;;;;;;23.20;7.70;;;9.70;96.30;;;;;;5034388;28;20266;-88
2021/03/29 08:58:05;;;;;;;21.43;8.17;;;9.70;96.50;;;;;;5023638;28;20182;-88
2021/03/29 09:00:34;;;;;;;17.87;7.57;;;9.90;96.50;;;;;;4995670;28;20595;-88
2021/03/29 09:03:00;;;;;;;14.20;6.43;;;10.00;95.80;;;;;;5033877;28;20172;-89
2021/03/29 09:05:29;;;;;;;16.57;7.83;;;10.00;95.30;;;;;;5016260;28;20190;-88
2021/03/29 09:07:55;;;;;;;16.27;7.00;;;9.90;96.90;;;;;;5052432;28;20175;-89
2021/03/29 09:10:34;;;;;;;21.90;8.60;;;10.20;96.20;;;;;;5018466;28;20710;-86
2021/03/29 09:13:07;;;;;;;21.67;7.17;;;11.40;95.40;;;;;;5022629;28;20649;-87
2021/03/29 09:15:36;;;;;;;20.83;6.90;;;10.00;94.00;;;;;;5040830;28;20220;-86
2021/03/29 09:18:07;;;;;;;14.80;6.53;;;10.20;93.80;;;;;;5042006;28;20206;-87
2021/03/29 09:20:38;;;;;;;19.10;6.10;;;10.10;94.00;;;;;;5039125;28;20263;-86
2021/03/29 09:23:05;;;;;;;11.13;6.53;;;10.20;92.10;;;;;;5039657;28;20211;-89
2021/03/29 09:25:35;;;;;;;15.77;6.90;;;10.50;92.90;;;;;;5025344;28;20188;-89
2021/03/29 09:28:44;;;;;;;17.63;6.20;;;10.40;91.90;;;;;;5037425;28;20160;-90
2021/03/29 09:31:19;;;;;;;21.13;5.83;;;10.50;91.70;;;;;;5019165;28;20299;-87
2021/03/29 09:33:48;;;;;;;14.13;6.23;;;10.60;90.10;;;;;;5020001;28;20732;-90
2021/03/29 09:36:28;;;;;;;14.80;5.83;;;10.60;90.60;;;;;;5019335;28;20172;-90
2021/03/29 09:38:58;;;;;;;12.37;5.93;;;10.60;90.80;;;;;;5037393;28;20169;-88
2021/03/29 09:41:33;;;;;;;14.60;5.33;;;10.70;90.60;;;;;;5038125;28;20230;-88
2021/03/29 09:44:05;;;;;;;13.33;5.87;;;10.80;89.50;;;;;;5021500;28;20196;-90
2021/03/29 09:46:32;;;;;;;14.00;5.90;;;10.90;89.70;;;;;;5022091;28;20263;-85
2021/03/29 09:49:16;;;;;;;8.60;4.40;;;11.10;90.40;;;;;;5056647;28;20652;-86
2021/03/29 09:51:47;;;;;;;11.93;4.03;;;11.50;88.00;;;;;;5038949;28;20215;-88
2021/03/29 09:54:32;;;;;;;10.00;3.40;;;11.50;85.30;;;;;;4996034;28;20235;-86
2021/03/29 09:57:11;;;;;;;14.00;5.10;;;11.50;85.70;;;;;;5023616;28;20178;-85
2021/03/29 09:59:39;;;;;;;13.10;4.90;;;11.50;84.70;;;;;;5041124;28;20180;-85
2021/03/29 10:02:17;;;;;;;16.33;5.23;;;11.30;86.10;;;;;;5045066;28;20180;-85
2021/03/29 10:04:45;;;;;;;7.17;4.07;;;11.30;86.40;;;;;;5067619;28;20222;-89
2021/03/29 10:07:17;;;;;;;10.63;4.20;;;11.40;87.70;;;;;;5047034;28;20713;-88
2021/03/29 10:09:47;;;;;;;11.27;5.13;;;11.50;87.80;;;;;;5010093;28;20271;-90
2021/03/29 10:12:25;;;;;;;17.67;5.07;;;11.60;86.90;;;;;;5063794;28;20210;-85
2021/03/29 10:15:02;;;;;;;10.97;5.03;;;11.70;86.50;;;;;;5048912;28;20215;-84
2021/03/29 10:17:28;;;;;;;15.20;6.33;;;11.60;85.00;;;;;;5043840;28;20284;-84
2021/03/29 10:20:06;;;;;;;15.00;5.83;;;11.60;85.30;;;;;;5021016;28;20234;-87
2021/03/29 10:22:32;;;;;;;8.85;4.97;;;11.80;85.90;;;;;;5044224;28;20203;-90
2021/03/29 10:25:22;;;;;;;11.77;5.93;;;11.90;85.60;;;;;;5032034;28;20185;-87
2021/03/29 10:27:53;;;;;;;17.57;6.13;;;12.00;87.20;;;;;;5025042;28;20278;-91
2021/03/29 10:30:19;;;;;;;11.47;4.60;;;12.00;84.30;;;;;;5021649;28;20658;-87
2021/03/29 10:32:52;;;;;;;11.10;4.60;;;12.00;83.30;;;;;;5025439;28;20219;-89
2021/03/29 10:35:19;;;;;;;13.85;5.53;;;12.10;83.90;;;;;;5022854;28;20208;-89
2021/03/29 10:37:45;;;;;;;8.35;4.78;;;12.10;84.10;;;;;;5014617;28;20640;-89
2021/03/29 10:40:12;;;;;;;8.10;5.05;;;12.10;83.30;;;;;;5018226;28;20177;-88
2021/03/29 10:42:40;;;;;;;9.80;4.17;;;12.10;82.80;;;;;;5000603;28;20199;-93
2021/03/29 10:45:11;;;;;;;14.33;5.60;;;11.70;83.60;;;;;;5020035;28;20186;-89
2021/03/29 10:47:40;;;;;;;13.10;5.97;;;11.60;86.80;;;;;;5018881;28;20225;-89
2021/03/29 10:50:11;;;;;;;10.43;5.60;;;11.70;87.60;;;;;;5014934;28;20193;-89
2021/03/29 10:52:37;;;;;;;12.57;5.55;;;12.00;85.30;;;;;;4983314;28;20246;-88
2021/03/29 10:55:05;;;;;;;8.30;5.30;;;11.90;85.40;;;;;;4981771;28;20674;-87
2021/03/29 10:57:33;;;;;;;12.23;6.00;;;11.80;84.30;;;;;;4986022;28;20173;-90
2021/03/29 10:59:58;;;;;;;10.97;5.30;;;11.70;84.80;;;;;;4981532;28;20208;-90
2021/03/29 11:02:24;;;;;;;10.07;4.93;;;11.90;84.90;;;;;;4997419;28;20219;-91
2021/03/29 11:04:50;;;;;;;10.77;6.37;;;11.90;85.50;;;;;;4989757;28;20193;-89
2021/03/29 11:07:16;;;;;;;12.55;5.85;;;12.00;85.40;;;;;;4997073;28;20177;-88
2021/03/29 11:09:42;;;;;;;18.70;6.00;;;11.90;82.90;;;;;;4969286;28;20779;-87
2021/03/29 11:12:09;;;;;;;16.42;6.28;;;11.90;83.40;;;;;;4997010;28;20297;-90
2021/03/29 11:14:34;;;;;;;11.45;5.82;;;11.90;83.10;;;;;;4990057;28;20206;-86
2021/03/29 11:17:00;;;;;;;12.05;6.18;;;12.00;83.20;;;;;;4978235;28;20244;-90
2021/03/29 11:19:26;;;;;;;16.10;5.43;;;12.10;83.80;;;;;;5015949;28;20189;-89
2021/03/29 11:21:52;;;;;;;9.10;5.18;;;11.90;84.80;;;;;;4993620;28;20192;-89
2021/03/29 11:24:20;;;;;;;12.63;4.97;;;11.90;85.60;;;;;;4996153;28;20264;-90
2021/03/29 11:26:47;;;;;;;11.43;5.30;;;11.70;83.40;;;;;;5014790;28;20264;-89
2021/03/29 11:29:13;;;;;;;12.70;5.47;;;11.70;84.20;;;;;;4985814;28;20182;-90
2021/03/29 11:31:41;;;;;;;11.55;5.43;;;11.80;87.80;;;;;;4978464;28;20181;-90
2021/03/29 11:34:08;;;;;;;13.03;6.40;;;11.90;85.20;;;;;;4995391;28;20229;-90
2021/03/29 11:36:34;;;;;;;10.15;5.18;;;11.70;84.40;;;;;;4997355;28;20207;-88
2021/03/29 11:39:00;;;;;;;14.93;5.13;;;11.90;86.10;;;;;;5006101;28;20602;-88
2021/03/29 11:41:26;;;;;;;12.67;5.63;;;11.80;87.50;;;;;;4996859;28;20188;-89
2021/03/29 11:43:52;;;;;;;14.37;5.27;;;10.00;83.50;;;;;;4997119;28;20673;-89
2021/03/29 11:46:18;;;;;;;10.83;4.93;;;11.60;88.10;;;;;;4997916;28;20181;-89
2021/03/29 11:48:47;;;;;;;16.03;6.57;;;11.70;85.60;;;;;;5019203;28;20196;-89
2021/03/29 11:51:13;;;;;;;14.63;6.77;;;9.90;87.40;;;;;;5036266;28;20225;-90
2021/03/29 11:53:42;;;;;;;18.10;6.77;;;11.60;88.80;;;;;;5036740;28;20582;-90
2021/03/29 11:56:07;;;;;;;14.53;6.73;;;11.60;89.20;;;;;;5019040;28;20186;-88
2021/03/29 11:58:33;;;;;;;11.67;6.53;;;11.60;90.00;;;;;;5000078;28;20185;-88
2021/03/29 12:01:05;;;;;;;15.82;7.47;;;11.70;90.90;;;;;;5013107;28;20588;-90
2021/03/29 12:06:14;;;;;;;14.70;8.43;;;11.60;92.00;;;;;;5015062;28;20184;-89
2021/03/29 12:08:52;;;;;;;18.10;8.47;;;11.90;91.00;;;;;;5019133;28;20187;-89
2021/03/29 12:14:09;;;;;;;15.57;7.23;;;11.80;91.50;;;;;;5015606;28;20700;-89
2021/03/29 12:16:41;;;;;;;12.60;6.90;;;11.90;90.70;;;;;;5025728;28;20655;-88
2021/03/29 12:19:07;;;;;;;12.77;7.00;;;12.00;90.10;;;;;;5011827;28;20180;-90
2021/03/29 12:21:36;;;;;;;15.33;7.60;;;12.00;90.50;;;;;;5011454;28;20556;-91
2021/03/29 12:24:12;;;;;;;11.35;6.57;;;12.00;90.50;;;;;;4998453;28;20185;-89
2021/03/29 12:26:39;;;;;;;15.53;7.53;;;12.00;90.60;;;;;;5011411;28;20315;-89
2021/03/29 12:29:09;;;;;;;14.03;7.03;;;11.80;90.70;;;;;;5026487;28;20272;-89
2021/03/29 12:31:37;;;;;;;12.63;6.85;;;11.90;91.80;;;;;;5004933;28;20707;-89
2021/03/29 12:34:05;;;;;;;15.23;7.40;;;11.90;91.60;;;;;;5001317;28;20243;-87
2021/03/29 12:36:42;;;;;;;10.00;6.43;;;11.90;92.00;;;;;;5014159;28;20203;-89
2021/03/29 12:39:25;;;;;;;12.20;5.67;;;11.90;91.60;;;;;;5015956;28;20180;-87
2021/03/29 12:41:57;;;;;;;10.50;5.73;;;11.90;92.50;;;;;;5015035;28;20288;-87
2021/03/29 12:44:23;;;;;;;12.73;5.00;;;11.70;92.60;;;;;;4996944;28;20548;-87
2021/03/29 12:46:56;;;;;;;14.02;7.00;;;11.50;94.40;;;;;;5002035;28;20228;-89
2021/03/29 12:49:22;;;;;;;11.03;6.07;;;11.40;94.70;;;;;;5012340;28;20648;-88
2021/03/29 12:51:55;;;;;;;10.30;6.73;;;11.40;96.70;;;;;;5033730;28;20278;-88
2021/03/29 12:54:26;;;;;;;12.57;6.37;;;11.30;96.30;;;;;;5036858;28;20299;-87
2021/03/29 12:57:10;;;;;;;12.57;5.67;;;11.30;97.70;;;;;;5021471;28;20196;-86
2021/03/29 12:59:36;;;;;;;11.00;6.37;;;11.30;98.80;;;;;;5010721;28;20181;-87
2021/03/29 13:02:02;;;;;;;13.93;6.10;;;11.20;98.30;;;;;;5013566;28;20192;-88
2021/03/29 13:04:34;;;;;;;10.00;6.60;;;11.20;97.50;;;;;;5015984;28;20291;-88
2021/03/29 13:07:23;;;;;;;12.17;6.00;;;11.20;97.90;;;;;;4999694;28;20617;-86
2021/03/29 13:10:10;;;;;;;10.30;5.43;;;11.20;99.30;;;;;;5002415;28;20176;-87
2021/03/29 13:12:36;;;;;;;11.37;5.33;;;11.20;98.00;;;;;;5019821;28;20262;-88
2021/03/29 13:15:10;;;;;;;9.83;5.27;;;11.20;97.60;;;;;;5025476;28;20680;-86
2021/03/29 13:17:41;;;;;;;14.03;6.67;;;11.20;96.20;;;;;;5030546;28;20665;-88
2021/03/29 13:20:12;;;;;;;12.43;6.77;;;11.20;97.10;;;;;;5027863;28;20184;-88
2021/03/29 13:22:40;;;;;;;12.93;5.83;;;11.20;96.00;;;;;;5015410;28;20265;-91
2021/03/29 13:25:09;;;;;;;12.50;6.20;;;11.20;95.40;;;;;;5031656;28;20176;-87
2021/03/29 13:27:35;;;;;;;8.82;6.10;;;11.30;96.40;;;;;;4993771;28;20198;-88
2021/03/29 13:30:04;;;;;;;10.03;5.90;;;11.40;96.50;;;;;;5025915;28;20187;-88
2021/03/29 13:32:31;;;;;;;13.90;7.40;;;11.50;95.80;;;;;;5025718;28;20200;-88
2021/03/29 13:34:57;;;;;;;13.63;6.00;;;11.80;97.00;;;;;;5012364;28;20227;-88
2021/03/29 13:37:23;;;;;;;13.07;6.20;;;11.50;95.80;;;;;;5014247;28;20185;-87
2021/03/29 13:39:50;;;;;;;22.13;6.80;;;11.90;95.40;;;;;;5017116;28;20200;-90
2021/03/29 13:42:16;;;;;;;13.83;7.53;;;11.50;96.20;;;;;;4995893;28;20192;-90